Time;durP1;ratioP1;P1;durP2;ratioP2;P2;SDS_P1;SDS_P2;PMS_P1;PMS_P2;Temp;Humidity;BMP_temperature;BMP_pressure;BME280_temperature;BME280_humidity;BME280_pressure;Samples;Min_cycle;Max_cycle;Signal;HPM_P1;HPM_P2
2021/06/05 00:00:26;;;;;;;38.08;30.17;;;;;;;17.18;100.00;101827.13;5105671;28;20079;-64
2021/06/05 00:02:52;;;;;;;38.92;30.88;;;;;;;17.15;100.00;101832.50;5102374;28;20028;-64
2021/06/05 00:05:19;;;;;;;40.22;32.45;;;;;;;17.12;100.00;101837.88;5105475;28;20031;-64
2021/06/05 00:07:45;;;;;;;39.60;31.17;;;;;;;16.97;100.00;101834.41;5098020;28;20060;-64
2021/06/05 00:10:14;;;;;;;41.65;31.75;;;;;;;17.02;100.00;101829.94;5105232;28;20065;-62
2021/06/05 00:12:39;;;;;;;38.30;31.63;;;;;;;16.95;100.00;101833.53;5102515;27;20058;-62
2021/06/05 00:15:14;;;;;;;40.05;31.45;;;;;;;16.93;100.00;101824.63;5104052;28;20028;-62
2021/06/05 00:17:39;;;;;;;40.95;32.40;;;;;;;17.01;100.00;101820.13;5102569;28;20043;-62
2021/06/05 00:20:10;;;;;;;41.58;33.10;;;;;;;17.05;100.00;101821.91;5103881;28;20024;-62
2021/06/05 00:22:35;;;;;;;41.33;33.83;;;;;;;17.10;100.00;101824.53;5102641;28;20063;-63
2021/06/05 00:25:01;;;;;;;38.42;32.50;;;;;;;17.04;100.00;101813.91;5103894;28;20063;-62
2021/06/05 00:27:27;;;;;;;40.58;33.72;;;;;;;16.92;100.00;101825.56;5104031;28;20367;-62
2021/06/05 00:29:52;;;;;;;40.33;32.72;;;;;;;16.86;100.00;101826.44;5102093;28;20062;-63
2021/06/05 00:32:17;;;;;;;40.97;33.35;;;;;;;16.76;100.00;101818.47;5105384;27;20023;-62
2021/06/05 00:34:43;;;;;;;43.08;33.92;;;;;;;16.71;100.00;101819.38;5101829;28;20027;-63
2021/06/05 00:37:08;;;;;;;43.55;34.90;;;;;;;16.68;100.00;101823.88;5104056;28;20031;-62
2021/06/05 00:39:33;;;;;;;45.03;35.80;;;;;;;16.62;100.00;101811.44;5103368;28;20019;-62
2021/06/05 00:41:59;;;;;;;43.88;36.33;;;;;;;16.61;100.00;101820.34;5102970;28;20047;-62
2021/06/05 00:44:24;;;;;;;46.25;36.63;;;;;;;16.69;100.00;101821.19;5104072;28;20027;-62
2021/06/05 00:46:50;;;;;;;47.40;38.20;;;;;;;16.62;100.00;101814.09;5101562;28;20026;-62
2021/06/05 00:49:16;;;;;;;47.30;38.72;;;;;;;16.65;100.00;101827.44;5104838;28;20036;-62
2021/06/05 00:51:45;;;;;;;46.85;38.38;;;;;;;16.59;100.00;101827.47;5102019;28;20042;-63
2021/06/05 00:54:13;;;;;;;50.22;40.40;;;;;;;16.54;100.00;101829.25;5104331;28;20026;-63
2021/06/05 00:56:41;;;;;;;49.28;40.38;;;;;;;16.48;100.00;101824.84;5102086;28;20466;-62
2021/06/05 00:59:08;;;;;;;49.75;41.08;;;;;;;16.48;100.00;101832.84;5103886;28;20031;-69
2021/06/05 01:01:33;;;;;;;50.22;40.88;;;;;;;16.51;100.00;101826.63;5103061;28;20020;-66
2021/06/05 01:03:59;;;;;;;52.92;42.08;;;;;;;16.48;100.00;101829.31;5100955;28;20105;-66
2021/06/05 01:06:39;;;;;;;53.78;43.80;;;;;;;16.43;100.00;101828.44;5104141;28;20412;-66
2021/06/05 01:09:13;;;;;;;53.25;43.63;;;;;;;16.51;100.00;101823.94;5103166;28;20111;-65
2021/06/05 01:11:51;;;;;;;53.70;43.17;;;;;;;16.49;100.00;101818.63;5102245;28;20020;-67
2021/06/05 01:14:34;;;;;;;53.53;43.58;;;;;;;16.58;100.00;101817.69;5104701;28;20084;-68
2021/06/05 01:17:15;;;;;;;53.83;42.92;;;;;;;16.63;100.00;101817.66;5100363;28;20548;-69
2021/06/05 01:20:02;;;;;;;50.95;42.00;;;;;;;16.71;100.00;101816.72;5101699;28;20028;-67
2021/06/05 01:22:56;;;;;;;49.47;41.08;;;;;;;16.77;100.00;101820.25;5099399;28;20032;-66
2021/06/05 01:25:40;;;;;;;51.20;42.83;;;;;;;16.84;100.00;101820.19;5098114;28;20036;-66
2021/06/05 01:28:12;;;;;;;51.42;43.30;;;;;;;16.77;100.00;101815.78;5102367;28;20040;-66
2021/06/05 01:30:47;;;;;;;54.38;43.72;;;;;;;16.70;100.00;101809.63;5103603;28;20031;-67
2021/06/05 01:33:14;;;;;;;53.47;43.92;;;;;;;16.71;100.00;101822.06;5105395;28;20036;-69
2021/06/05 01:35:40;;;;;;;54.50;45.20;;;;;;;16.83;100.00;101818.41;5107932;28;20039;-65
2021/06/05 01:38:08;;;;;;;52.25;44.20;;;;;;;16.85;100.00;101813.97;5106095;27;20023;-66
2021/06/05 01:40:33;;;;;;;53.95;43.90;;;;;;;16.98;100.00;101814.81;5106899;28;20103;-65
2021/06/05 01:43:02;;;;;;;53.88;43.75;;;;;;;17.04;100.00;101806.75;5107283;28;20188;-65
2021/06/05 01:45:31;;;;;;;52.47;44.22;;;;;;;17.10;100.00;101815.63;5106070;28;20105;-69
2021/06/05 01:47:58;;;;;;;52.42;43.30;;;;;;;17.09;100.00;101809.38;5107639;28;20023;-66
2021/06/05 01:50:27;;;;;;;52.35;43.13;;;;;;;17.19;100.00;101815.56;5104938;28;20044;-70
2021/06/05 01:52:56;;;;;;;53.33;44.95;;;;;;;17.20;100.00;101809.31;5107718;28;20440;-69
2021/06/05 01:55:27;;;;;;;53.13;43.75;;;;;;;17.21;100.00;101811.06;5104787;28;20028;-70
2021/06/05 01:57:57;;;;;;;53.77;44.37;;;;;;;17.21;100.00;101811.97;5107626;28;20486;-69
2021/06/05 02:00:40;;;;;;;53.05;44.42;;;;;;;17.22;100.00;101811.06;5104924;28;20271;-69
2021/06/05 02:03:06;;;;;;;53.30;45.28;;;;;;;17.14;100.00;101814.69;5105857;28;20032;-70
2021/06/05 02:05:32;;;;;;;58.28;47.38;;;;;;;17.10;100.00;101815.63;5105968;28;20028;-66
2021/06/05 02:07:58;;;;;;;65.38;51.67;;;;;;;17.01;100.00;101813.91;5106818;28;20028;-64
2021/06/05 02:10:33;;;;;;;76.68;54.97;;;;;;;16.98;100.00;101817.50;5105256;28;20046;-64
2021/06/05 02:12:58;;;;;;;71.88;50.72;;;;;;;16.96;100.00;101827.28;5106794;27;20078;-64
2021/06/05 02:15:32;;;;;;;77.40;55.75;;;;;;;16.98;100.00;101825.50;5104652;28;20056;-64
2021/06/05 02:17:59;;;;;;;86.72;58.40;;;;;;;16.98;100.00;101830.84;5106902;28;20081;-64
2021/06/05 02:20:29;;;;;;;89.75;58.60;;;;;;;16.91;100.00;101826.44;5105036;28;20058;-64
2021/06/05 02:22:59;;;;;;;88.65;58.58;;;;;;;16.93;100.00;101829.97;5106903;28;20454;-67
2021/06/05 02:25:27;;;;;;;98.40;63.42;;;;;;;16.89;100.00;101825.53;5104737;28;20020;-65
2021/06/05 02:27:54;;;;;;;95.80;63.47;;;;;;;16.88;100.00;101824.66;5107443;28;20029;-64
2021/06/05 02:30:21;;;;;;;100.82;65.22;;;;;;;16.87;100.00;101821.97;5103969;28;20360;-64
2021/06/05 02:32:48;;;;;;;106.07;68.82;;;;;;;16.86;100.00;101825.53;5099837;28;20485;-66
2021/06/05 02:35:23;;;;;;;108.13;71.00;;;;;;;16.80;100.00;101826.44;5107505;28;20107;-64
2021/06/05 02:37:48;;;;;;;111.28;73.20;;;;;;;16.82;100.00;101822.00;5100251;28;20031;-64
2021/06/05 02:40:18;;;;;;;111.78;71.55;;;;;;;16.80;100.00;101818.44;5107377;28;20019;-64
2021/06/05 02:42:43;;;;;;;111.10;74.50;;;;;;;16.84;100.00;101822.88;5102737;28;20566;-63
2021/06/05 02:45:20;;;;;;;108.53;73.72;;;;;;;16.89;100.00;101820.19;5106149;28;20115;-65
2021/06/05 02:47:55;;;;;;;111.32;76.47;;;;;;;16.93;100.00;101818.41;5099438;28;20032;-63
2021/06/05 02:50:23;;;;;;;119.25;83.55;;;;;;;16.90;100.00;101819.31;5099888;28;20047;-64
2021/06/05 02:52:50;;;;;;;127.40;88.32;;;;;;;16.84;100.00;101819.31;5106960;28;20437;-62
2021/06/05 02:55:19;;;;;;;126.63;90.70;;;;;;;16.81;100.00;101816.69;5103619;28;20060;-65
2021/06/05 02:57:45;;;;;;;125.63;85.57;;;;;;;16.84;100.00;101811.31;5106748;28;20030;-62
2021/06/05 03:00:17;;;;;;;125.45;85.50;;;;;;;16.88;100.00;101808.66;5104705;28;20107;-62
2021/06/05 03:02:42;;;;;;;130.15;90.53;;;;;;;16.84;100.00;101809.53;5104892;28;20486;-62
2021/06/05 03:05:08;;;;;;;124.28;85.88;;;;;;;16.93;100.00;101816.63;5104675;28;20066;-62
2021/06/05 03:07:34;;;;;;;120.30;84.93;;;;;;;16.99;100.00;101805.88;5104923;28;20020;-62
2021/06/05 03:10:00;;;;;;;113.97;83.55;;;;;;;17.06;100.00;101806.75;5105597;28;20126;-63
2021/06/05 03:12:25;;;;;;;111.18;82.50;;;;;;;17.03;100.00;101809.44;5103966;28;20470;-65
2021/06/05 03:14:51;;;;;;;120.38;85.22;;;;;;;16.98;100.00;101793.47;5106860;28;20031;-63
2021/06/05 03:17:17;;;;;;;116.88;84.20;;;;;;;16.98;100.00;101797.88;5097816;28;20032;-63
2021/06/05 03:19:42;;;;;;;121.97;87.20;;;;;;;16.97;100.00;101799.69;5106178;28;20034;-62
2021/06/05 03:22:07;;;;;;;117.35;87.28;;;;;;;17.03;100.00;101796.97;5104411;28;20023;-62
2021/06/05 03:24:33;;;;;;;119.60;88.05;;;;;;;17.03;100.00;101798.75;5104592;28;20057;-62
2021/06/05 03:27:00;;;;;;;122.10;91.13;;;;;;;17.06;100.00;101796.94;5105492;28;20020;-62
2021/06/05 03:29:27;;;;;;;122.53;91.70;;;;;;;17.10;100.00;101791.59;5103206;28;20063;-63
2021/06/05 03:31:52;;;;;;;117.93;91.82;;;;;;;17.06;100.00;101801.41;5106364;28;20112;-62
2021/06/05 03:34:18;;;;;;;120.60;93.82;;;;;;;17.06;100.00;101794.25;5103004;28;20474;-63
2021/06/05 03:36:43;;;;;;;115.50;93.47;;;;;;;17.08;100.00;101802.25;5105963;28;20344;-62
2021/06/05 03:39:08;;;;;;;119.50;95.15;;;;;;;17.04;100.00;101797.88;5103848;28;20030;-62
2021/06/05 03:41:36;;;;;;;118.72;93.78;;;;;;;17.09;100.00;101798.69;5103068;28;20091;-63
2021/06/05 03:44:02;;;;;;;121.07;97.30;;;;;;;17.06;100.00;101796.94;5105010;28;20480;-63
2021/06/05 03:46:28;;;;;;;121.18;95.97;;;;;;;17.07;100.00;101795.16;5103224;28;20739;-71
2021/06/05 03:48:53;;;;;;;120.65;95.75;;;;;;;17.10;100.00;101802.28;5105679;28;20019;-73
2021/06/05 03:51:19;;;;;;;123.82;100.03;;;;;;;17.06;100.00;101804.94;5102339;28;20047;-70
2021/06/05 03:53:44;;;;;;;120.45;95.22;;;;;;;17.09;100.00;101801.38;5105223;28;20059;-70
2021/06/05 03:56:09;;;;;;;125.80;99.75;;;;;;;17.08;100.00;101800.50;5103120;28;20031;-72
2021/06/05 03:58:39;;;;;;;127.47;100.25;;;;;;;17.06;100.00;101807.63;5104604;28;20036;-73
2021/06/05 04:01:13;;;;;;;129.52;99.85;;;;;;;17.00;100.00;101797.00;5103717;28;20024;-71
2021/06/05 04:03:40;;;;;;;134.40;100.55;;;;;;;16.98;100.00;101798.78;5104440;28;20474;-70
2021/06/05 04:06:08;;;;;;;136.70;102.13;;;;;;;17.00;100.00;101798.78;5103938;28;20015;-73
2021/06/05 04:08:34;;;;;;;136.50;100.80;;;;;;;17.06;100.00;101807.63;5103953;28;20020;-71
2021/06/05 04:11:00;;;;;;;133.27;101.15;;;;;;;17.03;100.00;101810.31;5104557;28;20016;-63
2021/06/05 04:13:26;;;;;;;136.50;102.50;;;;;;;17.02;100.00;101811.25;5102593;28;20031;-63
2021/06/05 04:15:51;;;;;;;140.38;105.35;;;;;;;17.06;100.00;101806.75;5105920;28;20020;-63
2021/06/05 04:18:23;;;;;;;133.65;101.18;;;;;;;17.07;100.00;101811.19;5102417;28;20411;-63
2021/06/05 04:20:49;;;;;;;141.40;106.43;;;;;;;17.01;100.00;101812.13;5105524;27;20028;-63
2021/06/05 04:23:15;;;;;;;137.88;103.30;;;;;;;17.03;100.00;101804.97;5102163;28;20028;-63
2021/06/05 04:25:40;;;;;;;140.10;101.63;;;;;;;17.03;100.00;101804.09;5104361;28;20063;-63
2021/06/05 04:28:09;;;;;;;140.57;103.07;;;;;;;17.01;100.00;101808.56;5103166;28;20024;-62
2021/06/05 04:30:37;;;;;;;138.60;105.35;;;;;;;17.12;100.00;101806.69;5103518;28;20027;-63
2021/06/05 04:33:04;;;;;;;137.35;104.75;;;;;;;17.16;100.00;101796.88;5103810;28;20398;-63
2021/06/05 04:35:30;;;;;;;131.52;102.10;;;;;;;17.20;100.00;101810.19;5102472;28;20016;-63
2021/06/05 04:37:56;;;;;;;132.30;98.85;;;;;;;17.18;100.00;101805.75;5105036;28;20031;-63
2021/06/05 04:40:23;;;;;;;131.25;101.40;;;;;;;17.18;100.00;101805.75;5101526;28;20072;-63
2021/06/05 04:42:49;;;;;;;133.52;103.03;;;;;;;17.24;100.00;101803.94;5104735;28;20023;-63
2021/06/05 04:45:16;;;;;;;131.05;100.43;;;;;;;17.28;100.00;101804.78;5101928;28;20032;-63
2021/06/05 04:47:41;;;;;;;135.45;101.57;;;;;;;17.33;100.00;101800.31;5104000;28;20031;-63
2021/06/05 04:50:12;;;;;;;132.35;100.32;;;;;;;17.32;100.00;101806.53;5102754;27;20051;-63
2021/06/05 04:52:37;;;;;;;136.02;102.13;;;;;;;17.29;100.00;101814.59;5103499;28;20111;-63
2021/06/05 04:55:05;;;;;;;134.52;100.13;;;;;;;17.26;100.00;101814.59;5103387;28;20106;-63
2021/06/05 04:57:51;;;;;;;131.93;99.30;;;;;;;17.26;100.00;101811.94;5102338;28;20030;-63
2021/06/05 05:00:39;;;;;;;134.63;102.13;;;;;;;17.23;100.00;101822.66;5085865;28;20032;-72
2021/06/05 05:03:06;;;;;;;138.30;102.15;;;;;;;17.15;100.00;101824.47;5100709;28;20050;-70
2021/06/05 05:05:32;;;;;;;135.95;102.97;;;;;;;17.13;100.00;101821.81;5103129;28;20035;-70
2021/06/05 05:07:58;;;;;;;134.77;100.88;;;;;;;17.06;100.00;101823.66;5101414;28;20047;-70
2021/06/05 05:10:30;;;;;;;135.57;101.10;;;;;;;17.00;100.00;101823.69;5104386;28;20371;-73
2021/06/05 05:12:57;;;;;;;139.50;103.93;;;;;;;17.00;100.00;101829.03;5101686;28;20032;-67
2021/06/05 05:15:23;;;;;;;135.82;99.95;;;;;;;16.99;100.00;101826.38;5105044;28;20427;-69
2021/06/05 05:17:49;;;;;;;141.10;104.50;;;;;;;16.98;100.00;101838.84;5101298;28;20024;-69
2021/06/05 05:20:17;;;;;;;144.32;105.85;;;;;;;16.98;100.00;101830.84;5104122;28;20433;-70
2021/06/05 05:22:43;;;;;;;143.65;102.57;;;;;;;16.95;100.00;101836.22;5101949;28;20068;-73
2021/06/05 05:25:10;;;;;;;139.93;100.65;;;;;;;16.99;100.00;101840.59;5101846;28;20111;-70
2021/06/05 05:27:36;;;;;;;144.68;104.45;;;;;;;17.00;100.00;101838.84;5102735;28;20028;-70
2021/06/05 05:30:25;;;;;;;146.25;104.43;;;;;;;17.03;100.00;101844.16;5102279;28;20110;-71
2021/06/05 05:32:50;;;;;;;142.38;102.80;;;;;;;16.99;100.00;101843.28;5097326;28;20520;-71
2021/06/05 05:35:16;;;;;;;150.20;107.03;;;;;;;17.02;100.00;101837.94;5104018;28;20024;-69
2021/06/05 05:37:42;;;;;;;144.38;106.38;;;;;;;17.04;100.00;101845.94;5102118;28;20085;-73
2021/06/05 05:40:09;;;;;;;149.23;103.40;;;;;;;17.05;100.00;101840.59;5102976;28;20079;-70
2021/06/05 05:42:35;;;;;;;147.80;103.50;;;;;;;17.08;100.00;101839.66;5102218;28;20015;-70
2021/06/05 05:45:01;;;;;;;152.23;104.95;;;;;;;17.05;100.00;101848.59;5101967;28;20027;-72
2021/06/05 05:47:27;;;;;;;157.70;107.10;;;;;;;17.06;100.00;101842.34;5103712;28;20540;-69
2021/06/05 05:49:52;;;;;;;163.20;106.32;;;;;;;16.99;100.00;101847.75;5100525;28;20470;-70
2021/06/05 05:52:18;;;;;;;158.43;104.07;;;;;;;17.00;100.00;101855.75;5104197;28;20474;-70
2021/06/05 05:54:43;;;;;;;156.05;99.60;;;;;;;16.96;100.00;101856.66;5101375;28;20075;-69
2021/06/05 05:57:08;;;;;;;152.95;98.95;;;;;;;16.95;100.00;101862.00;5102940;28;20035;-70
2021/06/05 05:59:34;;;;;;;154.73;97.13;;;;;;;16.93;100.00;101863.81;5101580;28;20055;-69
2021/06/05 06:01:59;;;;;;;151.38;95.70;;;;;;;16.81;100.00;101859.41;5101441;28;20024;-65
2021/06/05 06:04:24;;;;;;;159.43;98.90;;;;;;;16.84;100.00;101870.94;5103871;28;20055;-65
2021/06/05 06:06:50;;;;;;;144.07;91.88;;;;;;;16.83;100.00;101866.47;5100724;28;20066;-66
2021/06/05 06:09:16;;;;;;;134.00;87.70;;;;;;;16.74;100.00;101874.56;5103904;28;20046;-66
2021/06/05 06:11:46;;;;;;;140.15;91.88;;;;;;;16.81;100.00;101870.09;5101536;28;20031;-65
2021/06/05 06:14:11;;;;;;;131.18;86.35;;;;;;;16.89;100.00;101879.84;5103167;28;20028;-64
2021/06/05 06:16:36;;;;;;;126.75;84.22;;;;;;;16.94;100.00;101877.16;5102138;28;20046;-66
2021/06/05 06:19:02;;;;;;;131.23;83.70;;;;;;;16.98;100.00;101876.25;5105002;28;20474;-65
2021/06/05 06:21:27;;;;;;;127.28;83.40;;;;;;;16.97;100.00;101882.47;5107214;28;20027;-65
2021/06/05 06:23:53;;;;;;;131.60;85.00;;;;;;;17.04;100.00;101886.88;5104053;28;20027;-65
2021/06/05 06:26:26;;;;;;;127.47;84.03;;;;;;;17.02;100.00;101891.38;5107700;28;20470;-66
2021/06/05 06:28:52;;;;;;;120.88;79.32;;;;;;;16.98;100.00;101894.94;5100596;28;20063;-64
2021/06/05 06:31:19;;;;;;;121.57;80.63;;;;;;;16.95;100.00;101900.31;5107656;28;20051;-64
2021/06/05 06:33:46;;;;;;;120.97;78.18;;;;;;;16.97;100.00;101905.63;5104397;28;20489;-64
2021/06/05 06:36:14;;;;;;;121.43;78.82;;;;;;;16.97;100.00;101902.97;5106542;28;20035;-65
2021/06/05 06:38:43;;;;;;;115.25;76.95;;;;;;;17.09;100.00;101910.91;5104881;28;20478;-64
2021/06/05 06:41:15;;;;;;;116.00;75.60;;;;;;;17.27;100.00;101896.56;5105931;28;20383;-64
2021/06/05 06:43:41;;;;;;;108.18;72.18;;;;;;;17.36;100.00;101912.50;5104769;28;20039;-65
2021/06/05 06:46:13;;;;;;;105.93;71.50;;;;;;;17.41;100.00;101909.78;5105808;28;20024;-65
2021/06/05 06:48:38;;;;;;;104.60;70.07;;;;;;;17.53;100.00;101912.41;5104672;27;20081;-63
2021/06/05 06:51:04;;;;;;;105.85;68.55;;;;;;;17.53;100.00;101920.41;5104673;28;20048;-63
2021/06/05 06:53:32;;;;;;;100.25;66.50;;;;;;;17.61;100.00;101906.97;5106602;28;20024;-63
2021/06/05 06:55:57;;;;;;;100.32;66.68;;;;;;;17.68;100.00;101923.84;5104171;28;20034;-63
2021/06/05 06:58:22;;;;;;;102.82;67.22;;;;;;;17.80;100.00;101920.19;5107447;28;20102;-62
2021/06/05 07:00:50;;;;;;;95.22;65.00;;;;;;;17.84;100.00;101929.94;5103861;28;20536;-62
2021/06/05 07:03:16;;;;;;;95.28;62.70;;;;;;;17.85;100.00;101932.59;5106174;28;20246;-62
2021/06/05 07:05:42;;;;;;;97.15;66.28;;;;;;;17.92;100.00;101922.78;5104678;28;20103;-62
2021/06/05 07:08:14;;;;;;;96.22;63.67;;;;;;;18.04;100.00;101927.13;5104717;28;20024;-63
2021/06/05 07:10:41;;;;;;;89.00;60.88;;;;;;;18.08;100.00;101923.53;5106378;28;20028;-63
2021/06/05 07:13:07;;;;;;;89.93;60.10;;;;;;;18.11;100.00;101932.44;5102938;28;20356;-63
2021/06/05 07:15:33;;;;;;;90.70;60.53;;;;;;;18.26;100.00;101925.13;5106332;28;20474;-63
2021/06/05 07:17:59;;;;;;;84.93;57.17;;;;;;;18.28;100.00;101923.31;5103879;27;20046;-63
2021/06/05 07:20:25;;;;;;;89.35;59.50;;;;;;;18.34;100.00;101931.28;5104929;28;20435;-63
2021/06/05 07:22:51;;;;;;;82.97;58.30;;;;;;;18.42;100.00;101932.09;5104988;28;20027;-63
2021/06/05 07:25:17;;;;;;;78.68;53.25;;;;;;;18.51;100.00;101932.88;5103694;28;20035;-63
2021/06/05 07:27:42;;;;;;;75.90;53.22;;;;;;;18.49;100.00;101934.69;5104932;28;20020;-63
2021/06/05 07:30:09;;;;;;;70.05;50.53;;;;;;;18.39;100.00;101934.81;5102098;28;20463;-64
2021/06/05 07:32:34;;;;;;;63.80;46.53;;;;;;;18.26;99.07;101943.84;5106090;28;20031;-63
2021/06/05 07:35:00;;;;;;;66.88;49.55;;;;;;;18.18;100.00;101945.75;5103570;28;20024;-63
2021/06/05 07:37:25;;;;;;;65.13;46.58;;;;;;;18.07;100.00;101944.06;5104606;28;20360;-63
2021/06/05 07:39:51;;;;;;;60.25;44.90;;;;;;;17.86;99.73;101953.09;5104638;28;20060;-63
2021/06/05 07:42:16;;;;;;;62.60;46.20;;;;;;;17.86;100.00;101945.09;5103709;28;20485;-63
2021/06/05 07:44:42;;;;;;;58.40;43.90;;;;;;;17.66;100.00;101947.91;5106018;28;20072;-63
2021/06/05 07:47:07;;;;;;;60.50;44.22;;;;;;;17.73;100.00;101943.41;5102401;28;20500;-63
2021/06/05 07:49:39;;;;;;;54.28;40.28;;;;;;;17.76;100.00;101949.63;5105555;28;20044;-63
2021/06/05 07:52:09;;;;;;;55.95;41.25;;;;;;;17.76;100.00;101949.63;5102452;28;20380;-63
2021/06/05 07:54:34;;;;;;;55.13;41.50;;;;;;;17.86;100.00;101944.22;5105641;28;20040;-63
2021/06/05 07:57:00;;;;;;;54.00;39.35;;;;;;;17.93;100.00;101952.19;5101871;28;20040;-63
2021/06/05 07:59:28;;;;;;;49.67;37.35;;;;;;;18.07;100.00;101944.06;5104640;28;20035;-63
2021/06/05 08:01:54;;;;;;;49.95;36.58;;;;;;;18.14;99.40;101952.00;5103795;28;20065;-63
2021/06/05 08:04:20;;;;;;;47.30;34.85;;;;;;;18.21;96.53;101945.69;5103538;28;20028;-63
2021/06/05 08:06:46;;;;;;;45.75;33.88;;;;;;;18.22;96.86;101934.97;5104758;28;20534;-64
2021/06/05 08:09:12;;;;;;;45.50;33.00;;;;;;;18.32;97.12;101942.91;5102193;28;20032;-69
2021/06/05 08:11:38;;;;;;;45.63;34.17;;;;;;;18.25;97.29;101953.69;5105761;28;20030;-65
2021/06/05 08:14:05;;;;;;;45.15;33.58;;;;;;;18.25;100.00;101947.44;5102314;28;20103;-67
2021/06/05 08:16:36;;;;;;;46.40;33.55;;;;;;;18.22;100.00;101952.84;5104975;28;20028;-64
2021/06/05 08:19:02;;;;;;;46.85;35.28;;;;;;;18.11;100.00;101940.44;5102584;28;20039;-64
2021/06/05 08:21:27;;;;;;;53.05;39.95;;;;;;;17.92;100.00;101955.75;5103958;28;20402;-67
2021/06/05 08:23:52;;;;;;;54.65;43.00;;;;;;;17.64;100.00;101952.41;5103674;28;20028;-69
2021/06/05 08:26:18;;;;;;;58.40;43.92;;;;;;;17.48;100.00;101953.41;5102918;28;20032;-70
2021/06/05 08:28:44;;;;;;;60.95;46.45;;;;;;;17.44;100.00;101955.22;5104769;28;20076;-63
2021/06/05 08:31:13;;;;;;;60.63;44.83;;;;;;;17.49;100.00;101947.16;5101724;28;20055;-67
2021/06/05 08:33:39;;;;;;;58.92;46.22;;;;;;;17.47;100.00;101951.63;5105301;28;20015;-67
2021/06/05 08:36:06;;;;;;;60.13;46.70;;;;;;;17.36;100.00;101959.72;5103200;28;20028;-63
2021/06/05 08:38:31;;;;;;;62.05;47.42;;;;;;;17.27;100.00;101963.34;5100957;28;20020;-62
2021/06/05 08:41:18;;;;;;;61.17;48.05;;;;;;;17.20;100.00;101961.59;5103723;28;20039;-63
2021/06/05 08:44:08;;;;;;;62.92;48.30;;;;;;;17.27;100.00;101958.00;5098364;28;20028;-63
2021/06/05 08:46:48;;;;;;;63.65;48.97;;;;;;;17.34;100.00;101973.06;5101711;28;20028;-63
2021/06/05 08:49:24;;;;;;;63.05;48.65;;;;;;;17.41;100.00;101971.28;5098324;28;20072;-63
2021/06/05 08:51:55;;;;;;;69.97;49.92;;;;;;;17.37;100.00;101967.75;5104042;28;20027;-63
2021/06/05 08:54:47;;;;;;;64.40;48.55;;;;;;;17.37;100.00;101972.19;5102579;28;20020;-63
2021/06/05 08:57:29;;;;;;;67.82;49.13;;;;;;;17.45;100.00;101975.69;5095732;28;20039;-65
2021/06/05 08:59:58;;;;;;;74.40;51.70;;;;;;;17.31;100.00;101972.22;5100957;28;20024;-65
2021/06/05 09:02:26;;;;;;;68.75;49.50;;;;;;;17.34;100.00;101970.41;5103377;28;20088;-65
2021/06/05 09:04:53;;;;;;;69.63;51.08;;;;;;;17.42;100.00;101975.72;5102564;28;20145;-66
2021/06/05 09:07:20;;;;;;;70.22;49.28;;;;;;;17.48;100.00;101974.81;5104035;28;20038;-65
2021/06/05 09:09:49;;;;;;;70.72;50.10;;;;;;;17.55;100.00;101968.53;5101740;28;20382;-66
2021/06/05 09:12:15;;;;;;;72.22;50.08;;;;;;;17.68;100.00;101971.97;5104314;28;20027;-65
2021/06/05 09:14:42;;;;;;;73.07;50.00;;;;;;;17.67;100.00;101968.41;5101277;28;20016;-66
2021/06/05 09:17:31;;;;;;;76.20;50.67;;;;;;;17.67;100.00;101978.22;5096950;28;20031;-66
2021/06/05 09:20:08;;;;;;;76.93;51.25;;;;;;;17.56;100.00;101972.94;5101237;28;20487;-65
2021/06/05 09:22:42;;;;;;;76.38;51.13;;;;;;;17.53;100.00;101972.97;5101772;28;20092;-66
2021/06/05 09:25:40;;;;;;;74.22;51.83;;;;;;;17.63;100.00;101971.13;5104714;28;20149;-69
2021/06/05 09:28:19;;;;;;;72.05;48.50;;;;;;;17.86;100.00;101976.31;5049944;28;20041;-68
2021/06/05 09:30:46;;;;;;;65.57;44.58;;;;;;;18.05;99.44;101977.94;5046934;28;20106;-65
2021/06/05 09:33:14;;;;;;;64.65;46.38;;;;;;;17.87;100.00;101973.63;5050360;28;20070;-65
2021/06/05 09:35:46;;;;;;;68.65;47.78;;;;;;;17.68;100.00;101986.25;5046318;28;20104;-67
2021/06/05 09:38:33;;;;;;;65.75;44.78;;;;;;;17.52;100.00;101987.25;5050181;28;20037;-64
2021/06/05 09:41:10;;;;;;;70.22;48.78;;;;;;;17.23;100.00;101985.63;5050073;28;20560;-63
2021/06/05 09:43:37;;;;;;;65.90;44.63;;;;;;;17.35;100.00;101979.34;5050061;28;20098;-63
2021/06/05 09:46:11;;;;;;;69.75;46.33;;;;;;;17.59;100.00;101986.28;5050265;28;20418;-63
2021/06/05 09:48:42;;;;;;;64.82;45.58;;;;;;;17.67;100.00;101987.13;5050029;28;20512;-63
2021/06/05 09:51:36;;;;;;;63.55;42.60;;;;;;;17.89;100.00;101992.31;5049726;28;20099;-63
2021/06/05 09:54:01;;;;;;;63.88;43.80;;;;;;;18.08;100.00;101988.63;5052466;28;20039;-63
2021/06/05 09:56:31;;;;;;;60.60;42.08;;;;;;;18.25;96.52;101985.78;5053711;28;20112;-63
2021/06/05 09:59:23;;;;;;;57.83;41.08;;;;;;;18.35;94.86;101991.94;5053862;28;20029;-64
2021/06/05 10:02:02;;;;;;;60.25;41.63;;;;;;;18.18;93.44;101986.75;5051014;28;20036;-64
2021/06/05 10:04:30;;;;;;;61.25;42.75;;;;;;;18.05;96.62;101988.63;5097140;28;20043;-63
2021/06/05 10:06:58;;;;;;;59.38;42.05;;;;;;;17.99;96.20;101994.06;5106486;28;20036;-63
2021/06/05 10:09:26;;;;;;;56.95;41.40;;;;;;;18.03;96.06;101998.47;5106822;28;20074;-63
2021/06/05 10:11:54;;;;;;;55.13;38.78;;;;;;;18.10;94.24;101991.28;5105491;28;20116;-63
2021/06/05 10:14:23;;;;;;;54.80;39.92;;;;;;;18.24;95.32;101997.38;5107261;28;20023;-63
2021/06/05 10:16:57;;;;;;;54.33;39.47;;;;;;;18.67;91.71;101990.72;5104908;28;20031;-63
2021/06/05 10:19:34;;;;;;;50.35;36.50;;;;;;;18.86;87.01;101998.53;5106586;28;20031;-63
2021/06/05 10:21:59;;;;;;;48.97;36.17;;;;;;;18.95;87.18;101988.63;5106354;28;20463;-63
2021/06/05 10:24:30;;;;;;;51.65;36.78;;;;;;;19.09;85.07;101998.28;5104689;28;20070;-64
2021/06/05 10:27:00;;;;;;;49.20;36.15;;;;;;;19.22;86.64;101999.00;5105677;28;20039;-63
2021/06/05 10:29:35;;;;;;;45.42;33.65;;;;;;;18.75;86.44;102006.69;5105753;28;20076;-63
2021/06/05 10:32:05;;;;;;;42.33;32.65;;;;;;;18.33;87.05;102009.78;5106558;28;20052;-63
2021/06/05 10:34:48;;;;;;;40.83;31.02;;;;;;;18.20;87.54;102013.50;5105237;28;20019;-63
2021/06/05 10:37:29;;;;;;;42.95;32.80;;;;;;;17.69;90.72;102021.88;5107568;28;20024;-63
2021/06/05 10:39:54;;;;;;;43.85;34.10;;;;;;;17.42;93.15;102022.03;5105645;28;20040;-63
2021/06/05 10:42:39;;;;;;;44.35;34.15;;;;;;;17.62;92.73;102022.81;5106483;28;20051;-63
2021/06/05 10:45:09;;;;;;;42.55;33.75;;;;;;;17.46;92.04;102024.69;5106912;28;20027;-62
2021/06/05 10:47:43;;;;;;;43.58;33.90;;;;;;;17.67;94.51;102024.56;5104039;28;20099;-62
2021/06/05 10:50:31;;;;;;;42.05;32.83;;;;;;;18.04;92.74;102028.78;5106887;28;20040;-63
2021/06/05 10:53:00;;;;;;;41.40;32.60;;;;;;;18.49;89.13;102017.69;5103700;28;20491;-62
2021/06/05 10:55:32;;;;;;;40.72;32.17;;;;;;;18.74;86.33;102020.97;5105542;28;20107;-62
2021/06/05 10:58:07;;;;;;;39.63;32.50;;;;;;;18.99;84.90;102024.31;5105303;28;20027;-62
2021/06/05 11:00:41;;;;;;;38.22;28.95;;;;;;;19.52;82.90;102022.69;5104386;28;20470;-63
2021/06/05 11:03:22;;;;;;;37.50;30.10;;;;;;;19.78;79.35;102017.88;5106326;28;20063;-63
2021/06/05 11:06:01;;;;;;;36.53;27.83;;;;;;;20.82;76.90;102012.47;5100536;28;20119;-64
2021/06/05 11:08:30;;;;;;;32.85;25.73;;;;;;;21.58;68.79;102010.88;5103928;28;20169;-67